Fedscreek, Kentucky
Current Conditions -  °F | °C
As of 11:15 AM on Saturday 20 Dec 2014 (Local Time) from KPBX Reporting Station
Overcast Overcast  
Wind Chill: 31°   Ceiling: 3700
Heat Index: 31°   Visibility: 10mi
Dew Point: 26°   Wind: 0mph
Humidity: 83%   Direction: NA
Pressure: 30.23"   Gusts: NA
Location:  37.4°N, 82.25°W
Report Text: KPBX 201615Z AUTO 00000KT 10SM OVC037 M01/M03 A3023 RMK AO2 T10061031
Loading
Personal Weather Stations






























Interactive Weather Map New forecast layout! Learn more

10-Day Weather Forecast

Advertisements
Track Severe Weather on mobile